Time;durP1;ratioP1;P1;durP2;ratioP2;P2;SDS_P1;SDS_P2;PMS_P1;PMS_P2;Temp;Humidity;BMP_temperature;BMP_pressure;BME280_temperature;BME280_humidity;BME280_pressure;Samples;Min_cycle;Max_cycle;Signal;HPM_P1;HPM_P2
2021/03/09 00:01:59;;;;;;;;;;;26.70;88.30;;;;;;5072699;28;20054;-84
2021/03/09 00:04:29;;;;;;;;;;;26.70;86.00;;;;;;5072691;28;20393;-82
2021/03/09 00:06:57;;;;;;;;;;;26.80;85.70;;;;;;5104116;28;19917;-79
2021/03/09 00:09:27;;;;;;;;;;;26.80;84.20;;;;;;5072468;28;20366;-81
2021/03/09 00:11:54;;;;;;;;;;;26.80;83.90;;;;;;5073824;28;19962;-83
2021/03/09 00:14:20;;;;;;;;;;;26.90;81.60;;;;;;5073339;28;19915;-83
2021/03/09 00:16:50;;;;;;;;;;;26.90;84.60;;;;;;5072865;28;19909;-82
2021/03/09 00:19:19;;;;;;;;;;;26.90;84.70;;;;;;5072656;28;20425;-79
2021/03/09 00:21:46;;;;;;;;;;;27.10;85.90;;;;;;5087394;28;19962;-79
2021/03/09 00:24:13;;;;;;;;;;;27.10;84.60;;;;;;5072401;28;19920;-81
2021/03/09 00:26:47;;;;;;;;;;;27.00;86.40;;;;;;5072800;28;19951;-83
2021/03/09 00:29:14;;;;;;;;;;;27.00;88.10;;;;;;5072861;28;19916;-82
2021/03/09 00:31:41;;;;;;;;;;;27.00;91.20;;;;;;5070694;28;19924;-78
2021/03/09 00:34:07;;;;;;;;;;;27.10;91.70;;;;;;5086250;28;19913;-78
2021/03/09 00:36:34;;;;;;;;;;;27.10;93.60;;;;;;5071937;28;20381;-77
2021/03/09 00:39:01;;;;;;;;;;;27.30;94.60;;;;;;5069458;28;19919;-78
2021/03/09 00:41:29;;;;;;;;;;;27.20;95.00;;;;;;5072151;28;19909;-78
2021/03/09 00:43:56;;;;;;;;;;;27.10;95.10;;;;;;5071649;28;19916;-78
2021/03/09 00:46:22;;;;;;;;;;;27.30;95.20;;;;;;5072534;28;19908;-81
2021/03/09 00:48:50;;;;;;;;;;;27.30;95.00;;;;;;5072374;28;19943;-81
2021/03/09 00:51:16;;;;;;;;;;;27.20;96.00;;;;;;5070320;28;19919;-81
2021/03/09 00:53:43;;;;;;;;;;;27.20;96.30;;;;;;5071150;28;19915;-83
2021/03/09 00:56:12;;;;;;;;;;;27.10;97.20;;;;;;5072238;28;19912;-79
2021/03/09 00:58:39;;;;;;;;;;;27.10;98.00;;;;;;5090089;28;19995;-83
2021/03/09 01:01:06;;;;;;;;;;;27.10;98.30;;;;;;5074197;28;20251;-80
2021/03/09 01:03:32;;;;;;;;;;;27.10;98.40;;;;;;5072993;28;19913;-78
2021/03/09 01:06:00;;;;;;;;;;;27.10;99.00;;;;;;5075030;28;20007;-80
2021/03/09 01:08:27;;;;;;;;;;;27.10;99.40;;;;;;5075475;28;19921;-84
2021/03/09 01:10:56;;;;;;;;;;;27.20;99.70;;;;;;5075093;28;19948;-80
2021/03/09 01:13:23;;;;;;;;;;;27.30;99.40;;;;;;5104653;28;20329;-81
2021/03/09 01:15:50;;;;;;;;;;;27.30;99.40;;;;;;5105358;28;20332;-82
2021/03/09 01:18:16;;;;;;;;;;;27.20;98.90;;;;;;5072636;28;19962;-80
2021/03/09 01:20:43;;;;;;;;;;;27.20;99.30;;;;;;5071617;28;19939;-79
2021/03/09 01:23:10;;;;;;;;;;;27.40;99.40;;;;;;5072167;28;19983;-80
2021/03/09 01:25:36;;;;;;;;;;;27.50;99.40;;;;;;5072410;28;19948;-77
2021/03/09 01:28:03;;;;;;;;;;;27.50;99.00;;;;;;5071114;28;19916;-80
2021/03/09 01:30:30;;;;;;;;;;;27.40;99.00;;;;;;5071179;28;19913;-80
2021/03/09 01:32:56;;;;;;;;;;;27.50;98.80;;;;;;5070806;28;19908;-80
2021/03/09 01:35:23;;;;;;;;;;;27.60;99.10;;;;;;5103572;28;20046;-79
2021/03/09 01:37:50;;;;;;;;;;;27.90;98.50;;;;;;5086210;28;19912;-79
2021/03/09 01:40:17;;;;;;;;;;;28.20;97.90;;;;;;5091978;28;19908;-79
2021/03/09 01:42:43;;;;;;;;;;;28.20;97.80;;;;;;5107151;28;19919;-79
2021/03/09 01:45:10;;;;;;;;;;;28.10;98.00;;;;;;5091575;28;20407;-79
2021/03/09 01:47:40;;;;;;;;;;;27.90;98.30;;;;;;5091830;28;19909;-81
2021/03/09 01:50:07;;;;;;;;;;;27.90;98.00;;;;;;5091593;28;19915;-80
2021/03/09 01:52:34;;;;;;;;;;;27.80;98.30;;;;;;5074376;28;20007;-79
2021/03/09 01:55:01;;;;;;;;;;;27.70;98.90;;;;;;5071106;28;19909;-79
2021/03/09 01:57:28;;;;;;;;;;;27.30;98.90;;;;;;5106396;28;19908;-78
2021/03/09 01:59:56;;;;;;;;;;;26.90;99.90;;;;;;5065930;28;19919;-80
2021/03/09 02:02:23;;;;;;;;;;;26.70;99.90;;;;;;5055168;28;20278;-78
2021/03/09 02:04:50;;;;;;;;;;;26.50;99.90;;;;;;5057014;28;20383;-79
2021/03/09 02:07:16;;;;;;;;;;;26.40;99.90;;;;;;5075530;28;19912;-79
2021/03/09 02:09:44;;;;;;;;;;;26.20;99.90;;;;;;5074218;28;19916;-80
2021/03/09 02:12:22;;;;;;;;;;;26.10;99.90;;;;;;5071992;28;19912;-78
2021/03/09 02:14:54;;;;;;;;;;;26.10;99.90;;;;;;5074969;28;19919;-77
2021/03/09 02:17:33;;;;;;;;;;;26.10;99.90;;;;;;5090489;28;19908;-79
2021/03/09 02:20:12;;;;;;;;;;;26.20;99.90;;;;;;5073544;28;20256;-79
2021/03/09 02:22:48;;;;;;;;;;;26.20;99.90;;;;;;5076935;28;20461;-80
2021/03/09 02:25:33;;;;;;;;;;;26.20;99.90;;;;;;5079016;28;19913;-81
2021/03/09 02:28:18;;;;;;;;;;;26.30;99.90;;;;;;5090111;28;19965;-79
2021/03/09 02:30:45;;;;;;;;;;;26.40;99.90;;;;;;5090346;28;19912;-80
2021/03/09 02:33:12;;;;;;;;;;;26.30;99.90;;;;;;5073600;28;20003;-81
2021/03/09 02:35:40;;;;;;;;;;;26.40;99.90;;;;;;5074065;28;19908;-80
2021/03/09 02:38:09;;;;;;;;;;;26.40;99.70;;;;;;5074723;28;19912;-81
2021/03/09 02:40:39;;;;;;;;;;;26.40;99.00;;;;;;5074765;28;19913;-81
2021/03/09 02:43:10;;;;;;;;;;;26.40;99.20;;;;;;5073206;28;20321;-80
2021/03/09 02:45:37;;;;;;;;;;;26.30;99.60;;;;;;5074165;28;19909;-80
2021/03/09 02:48:05;;;;;;;;;;;26.30;99.40;;;;;;5074996;28;19931;-79
2021/03/09 02:50:33;;;;;;;;;;;26.30;99.30;;;;;;5076429;28;19935;-78
2021/03/09 02:53:10;;;;;;;;;;;26.40;99.40;;;;;;5107804;28;19979;-78
2021/03/09 02:55:41;;;;;;;;;;;26.40;99.80;;;;;;5072429;28;19960;-79
2021/03/09 02:58:24;;;;;;;;;;;26.60;99.70;;;;;;5073404;28;19913;-79
2021/03/09 03:00:55;;;;;;;;;;;26.50;99.70;;;;;;5109972;28;19908;-78
2021/03/09 03:03:23;;;;;;;;;;;26.50;99.90;;;;;;5075249;28;20363;-78
2021/03/09 03:05:50;;;;;;;;;;;26.50;99.90;;;;;;5071930;28;19962;-77
2021/03/09 03:08:17;;;;;;;;;;;26.50;99.90;;;;;;5073850;28;19928;-77
2021/03/09 03:10:45;;;;;;;;;;;26.70;99.60;;;;;;5073013;28;20264;-75
2021/03/09 03:13:13;;;;;;;;;;;26.60;99.40;;;;;;5074065;28;19919;-79
2021/03/09 03:15:43;;;;;;;;;;;26.50;99.70;;;;;;5074179;28;19912;-76
2021/03/09 03:18:30;;;;;;;;;;;;;;;;;;;;;
2021/03/09 03:21:05;;;;;;;;;;;26.30;99.90;;;;;;5073452;28;20265;-77
2021/03/09 03:23:32;;;;;;;;;;;26.40;99.60;;;;;;5099549;28;19916;-76
2021/03/09 03:26:05;;;;;;;;;;;26.30;99.90;;;;;;5086206;28;19913;-77
2021/03/09 03:28:32;;;;;;;;;;;26.30;99.50;;;;;;5085977;28;19960;-78
2021/03/09 03:31:01;;;;;;;;;;;26.40;99.40;;;;;;5052406;28;19909;-78
2021/03/09 03:33:28;;;;;;;;;;;26.50;99.80;;;;;;5085886;28;20279;-80
2021/03/09 03:36:03;;;;;;;;;;;26.50;99.20;;;;;;5084368;28;20000;-77
2021/03/09 03:38:31;;;;;;;;;;;26.40;99.50;;;;;;5093298;28;19916;-77
2021/03/09 03:40:59;;;;;;;;;;;26.30;99.50;;;;;;5109979;28;19966;-77
2021/03/09 03:43:25;;;;;;;;;;;26.30;99.40;;;;;;5093833;28;19965;-78
2021/03/09 03:45:52;;;;;;;;;;;26.40;99.30;;;;;;5093732;28;19914;-78
2021/03/09 03:48:21;;;;;;;;;;;26.30;99.40;;;;;;5094542;28;19935;-78
2021/03/09 03:50:51;;;;;;;;;;;26.30;99.70;;;;;;5109900;28;19916;-80
2021/03/09 03:53:23;;;;;;;;;;;26.20;99.90;;;;;;5090172;28;20333;-78
2021/03/09 03:56:08;;;;;;;;;;;26.50;99.50;;;;;;5073717;28;20004;-79
2021/03/09 03:58:47;;;;;;;;;;;26.30;99.60;;;;;;5073090;28;19908;-79
2021/03/09 04:01:14;;;;;;;;;;;26.20;99.90;;;;;;5092976;28;20315;-78
2021/03/09 04:03:41;;;;;;;;;;;26.10;99.90;;;;;;5086347;28;20263;-78
2021/03/09 04:06:09;;;;;;;;;;;26.10;99.90;;;;;;5077683;28;19919;-78
2021/03/09 04:08:39;;;;;;;;;;;26.10;99.70;;;;;;5075059;28;19928;-79
2021/03/09 04:11:07;;;;;;;;;;;26.00;99.90;;;;;;5073703;28;19908;-79
2021/03/09 04:13:34;;;;;;;;;;;26.00;98.90;;;;;;5073757;28;19919;-78
2021/03/09 04:16:02;;;;;;;;;;;26.10;99.50;;;;;;5073552;28;20374;-80
2021/03/09 04:18:29;;;;;;;;;;;26.20;99.90;;;;;;5073670;28;19913;-79
2021/03/09 04:20:57;;;;;;;;;;;26.30;99.90;;;;;;5072707;28;20382;-79
2021/03/09 04:23:24;;;;;;;;;;;26.10;99.90;;;;;;5073823;28;19936;-78
2021/03/09 04:25:51;;;;;;;;;;;25.90;99.90;;;;;;5105716;28;19919;-78
2021/03/09 04:28:18;;;;;;;;;;;25.80;99.90;;;;;;5073158;28;19913;-78
2021/03/09 04:30:45;;;;;;;;;;;25.90;99.90;;;;;;5073274;28;19909;-78
2021/03/09 04:33:13;;;;;;;;;;;25.90;99.90;;;;;;5088609;28;20303;-79
2021/03/09 04:35:43;;;;;;;;;;;25.80;99.90;;;;;;5071195;28;19917;-78
2021/03/09 04:38:10;;;;;;;;;;;25.70;99.90;;;;;;5073335;28;19958;-80
2021/03/09 04:40:37;;;;;;;;;;;25.60;99.90;;;;;;5073397;28;19915;-82
2021/03/09 04:43:13;;;;;;;;;;;25.60;99.90;;;;;;5073061;28;19988;-82
2021/03/09 04:45:48;;;;;;;;;;;25.60;99.90;;;;;;5073801;28;19954;-82
2021/03/09 04:48:17;;;;;;;;;;;25.40;99.90;;;;;;5071865;28;19923;-83
2021/03/09 04:50:46;;;;;;;;;;;25.20;99.90;;;;;;5071454;28;20541;-82
2021/03/09 04:53:14;;;;;;;;;;;25.20;99.90;;;;;;5071490;28;19913;-82
2021/03/09 04:55:40;;;;;;;;;;;25.00;99.90;;;;;;5071526;28;19954;-81
2021/03/09 04:58:08;;;;;;;;;;;25.00;99.90;;;;;;5086931;28;19913;-82
2021/03/09 05:00:35;;;;;;;;;;;25.00;99.90;;;;;;5103282;28;20270;-82
2021/03/09 05:03:01;;;;;;;;;;;24.90;99.90;;;;;;5086920;28;20000;-82
2021/03/09 05:05:28;;;;;;;;;;;24.80;99.90;;;;;;5088125;28;20251;-82
2021/03/09 05:07:55;;;;;;;;;;;24.80;99.90;;;;;;5071884;28;20015;-82
2021/03/09 05:10:21;;;;;;;;;;;24.70;99.90;;;;;;5088629;28;19953;-82
2021/03/09 05:12:51;;;;;;;;;;;24.80;99.90;;;;;;5073016;28;19908;-83
2021/03/09 05:15:19;;;;;;;;;;;24.80;99.90;;;;;;5073496;28;20302;-83
2021/03/09 05:17:46;;;;;;;;;;;24.80;99.90;;;;;;5072724;28;20282;-83
2021/03/09 05:20:14;;;;;;;;;;;24.90;99.90;;;;;;5088600;28;20289;-84
2021/03/09 05:22:41;;;;;;;;;;;24.90;99.90;;;;;;5073900;28;19909;-83
2021/03/09 05:25:09;;;;;;;;;;;25.00;99.90;;;;;;5073899;28;19999;-82
2021/03/09 05:27:36;;;;;;;;;;;24.90;99.90;;;;;;5088287;28;19915;-82
2021/03/09 05:30:04;;;;;;;;;;;24.90;99.90;;;;;;5073702;28;20267;-81
2021/03/09 05:32:31;;;;;;;;;;;24.90;99.90;;;;;;5077214;28;19987;-82
2021/03/09 05:35:01;;;;;;;;;;;24.90;99.90;;;;;;5075377;28;20339;-82
2021/03/09 05:37:28;;;;;;;;;;;24.70;99.90;;;;;;5084281;28;19908;-81
2021/03/09 05:39:55;;;;;;;;;;;24.70;99.90;;;;;;5087784;28;19916;-82
2021/03/09 05:42:24;;;;;;;;;;;24.60;99.90;;;;;;5076175;28;19995;-82
2021/03/09 05:44:51;;;;;;;;;;;24.70;99.90;;;;;;5096858;28;19908;-82
2021/03/09 05:47:18;;;;;;;;;;;24.80;99.90;;;;;;5084873;28;19912;-81
2021/03/09 05:49:50;;;;;;;;;;;24.70;99.90;;;;;;5082659;28;19920;-83
2021/03/09 05:52:20;;;;;;;;;;;24.60;99.90;;;;;;5075502;28;19989;-82
2021/03/09 05:54:47;;;;;;;;;;;24.60;99.90;;;;;;5075769;28;19916;-81
2021/03/09 05:57:14;;;;;;;;;;;24.50;99.90;;;;;;5074472;28;20324;-81
2021/03/09 05:59:41;;;;;;;;;;;24.40;99.90;;;;;;5075329;28;19908;-80
2021/03/09 06:02:07;;;;;;;;;;;24.30;99.90;;;;;;5098529;28;19916;-81
2021/03/09 06:04:37;;;;;;;;;;;24.30;99.90;;;;;;5083444;28;19984;-82
2021/03/09 06:07:07;;;;;;;;;;;24.30;99.90;;;;;;5075014;28;20346;-82
2021/03/09 06:09:56;;;;;;;;;;;24.20;99.90;;;;;;5075855;28;19963;-81
2021/03/09 06:12:25;;;;;;;;;;;24.20;99.90;;;;;;5075309;28;19908;-82
2021/03/09 06:15:02;;;;;;;;;;;24.20;99.90;;;;;;5074534;28;19908;-82
2021/03/09 06:17:30;;;;;;;;;;;24.20;99.90;;;;;;5073817;28;19909;-82
2021/03/09 06:19:57;;;;;;;;;;;24.20;99.90;;;;;;5073658;28;19908;-83
2021/03/09 06:22:39;;;;;;;;;;;24.10;99.90;;;;;;5075237;28;19914;-82
2021/03/09 06:25:13;;;;;;;;;;;24.10;99.90;;;;;;5075897;28;19940;-82
2021/03/09 06:27:40;;;;;;;;;;;24.20;99.90;;;;;;5074373;28;20421;-83
2021/03/09 06:30:14;;;;;;;;;;;24.20;99.90;;;;;;5075251;28;19916;-83
2021/03/09 06:32:45;;;;;;;;;;;24.10;99.90;;;;;;5073718;28;19963;-83
2021/03/09 06:35:31;;;;;;;;;;;23.90;99.90;;;;;;5073562;28;19913;-82
2021/03/09 06:38:16;;;;;;;;;;;24.00;99.90;;;;;;5074544;28;19909;-82
2021/03/09 06:41:08;;;;;;;;;;;24.10;99.90;;;;;;5074143;28;20279;-82
2021/03/09 06:43:35;;;;;;;;;;;24.10;99.90;;;;;;5073692;28;20267;-83
2021/03/09 06:46:18;;;;;;;;;;;24.10;99.90;;;;;;5074580;28;19912;-83
2021/03/09 06:48:46;;;;;;;;;;;24.10;99.90;;;;;;5074937;28;20325;-83
2021/03/09 06:51:29;;;;;;;;;;;24.00;99.90;;;;;;5074813;28;20355;-83
2021/03/09 06:53:59;;;;;;;;;;;24.00;99.90;;;;;;5074315;28;19912;-83
2021/03/09 06:56:29;;;;;;;;;;;23.90;99.90;;;;;;5090407;28;19938;-83
2021/03/09 06:59:01;;;;;;;;;;;23.90;99.90;;;;;;5075284;28;19916;-82
2021/03/09 07:01:28;;;;;;;;;;;23.90;99.90;;;;;;5073875;28;19954;-83
2021/03/09 07:03:58;;;;;;;;;;;23.80;99.90;;;;;;5073183;28;19916;-83
2021/03/09 07:06:24;;;;;;;;;;;23.80;99.90;;;;;;5074521;28;19973;-83
2021/03/09 07:09:07;;;;;;;;;;;23.70;99.90;;;;;;5074905;28;19924;-82
2021/03/09 07:11:38;;;;;;;;;;;23.80;99.90;;;;;;5075089;28;20101;-82
2021/03/09 07:14:06;;;;;;;;;;;23.80;99.90;;;;;;5075288;28;19931;-83
2021/03/09 07:16:35;;;;;;;;;;;23.80;99.90;;;;;;5057561;28;19920;-83
2021/03/09 07:19:04;;;;;;;;;;;23.70;99.90;;;;;;5074773;28;19931;-83
2021/03/09 07:21:39;;;;;;;;;;;23.70;99.90;;;;;;5090716;28;20389;-83
2021/03/09 07:24:07;;;;;;;;;;;23.70;99.90;;;;;;5072711;28;19948;-82
2021/03/09 07:26:38;;;;;;;;;;;23.60;99.90;;;;;;5080094;28;19912;-85
2021/03/09 07:29:07;;;;;;;;;;;23.60;99.90;;;;;;5122625;28;19920;-84
2021/03/09 07:31:35;;;;;;;;;;;23.70;99.90;;;;;;5082459;28;19939;-85
2021/03/09 07:34:04;;;;;;;;;;;23.70;99.90;;;;;;5090074;28;19952;-84
2021/03/09 07:36:32;;;;;;;;;;;23.60;99.90;;;;;;5074424;28;19909;-84
2021/03/09 07:38:59;;;;;;;;;;;23.50;99.90;;;;;;5089581;28;20008;-84
2021/03/09 07:41:25;;;;;;;;;;;23.50;99.90;;;;;;5074729;28;19920;-83
2021/03/09 07:43:52;;;;;;;;;;;23.50;99.90;;;;;;5073683;28;19954;-84
2021/03/09 07:46:19;;;;;;;;;;;23.40;99.90;;;;;;5106635;28;19913;-84
2021/03/09 07:48:46;;;;;;;;;;;23.50;99.90;;;;;;5106778;28;20378;-83
2021/03/09 07:51:13;;;;;;;;;;;23.50;99.90;;;;;;5074540;28;19909;-83
2021/03/09 07:53:59;;;;;;;;;;;23.50;99.90;;;;;;5073438;28;19919;-82
2021/03/09 07:56:28;;;;;;;;;;;23.40;99.90;;;;;;5106951;28;19909;-83
2021/03/09 07:59:07;;;;;;;;;;;23.40;99.90;;;;;;5073336;28;19962;-84
2021/03/09 08:01:47;;;;;;;;;;;23.40;99.90;;;;;;5075480;28;19909;-82
2021/03/09 08:04:30;;;;;;;;;;;23.50;99.90;;;;;;5075414;28;19908;-83
2021/03/09 08:06:57;;;;;;;;;;;23.50;99.90;;;;;;5074073;28;19908;-82
2021/03/09 08:09:34;;;;;;;;;;;23.40;99.90;;;;;;5059313;28;19932;-83
2021/03/09 08:12:02;;;;;;;;;;;23.40;99.90;;;;;;5053877;28;19908;-82
2021/03/09 08:14:29;;;;;;;;;;;23.40;99.90;;;;;;5069196;28;19913;-83
2021/03/09 08:16:58;;;;;;;;;;;23.40;99.90;;;;;;5085766;28;19919;-82
2021/03/09 08:19:37;;;;;;;;;;;23.40;99.90;;;;;;5053656;28;19912;-83
2021/03/09 08:22:04;;;;;;;;;;;23.30;99.90;;;;;;5053452;28;19963;-81
2021/03/09 08:24:45;;;;;;;;;;;23.20;99.90;;;;;;5053757;28;20004;-81
2021/03/09 08:27:30;;;;;;;;;;;23.20;99.90;;;;;;5103624;28;19911;-82
2021/03/09 08:30:17;;;;;;;;;;;23.10;99.90;;;;;;5100262;28;19921;-83
2021/03/09 08:32:49;;;;;;;;;;;23.00;99.90;;;;;;5053440;28;19955;-82
2021/03/09 08:35:16;;;;;;;;;;;23.00;99.90;;;;;;5053242;28;20232;-82
2021/03/09 08:37:50;;;;;;;;;;;23.00;99.90;;;;;;5085467;28;20323;-82
2021/03/09 08:40:18;;;;;;;;;;;23.00;99.90;;;;;;5086743;28;20426;-83
2021/03/09 08:43:05;;;;;;;;;;;22.90;99.90;;;;;;5053382;28;19915;-86
2021/03/09 08:45:43;;;;;;;;;;;22.90;99.90;;;;;;5053519;28;19912;-81
2021/03/09 08:48:12;;;;;;;;;;;22.90;99.90;;;;;;5051039;28;20385;-83
2021/03/09 08:50:45;;;;;;;;;;;22.80;99.90;;;;;;5084775;28;19940;-83
2021/03/09 08:53:33;;;;;;;;;;;22.80;99.90;;;;;;5065935;28;19908;-83
2021/03/09 08:56:04;;;;;;;;;;;22.80;99.90;;;;;;5051200;28;19909;-84
2021/03/09 08:58:31;;;;;;;;;;;22.80;99.90;;;;;;5083365;28;20411;-83
2021/03/09 09:00:58;;;;;;;;;;;22.80;99.90;;;;;;5081933;28;19912;-84
2021/03/09 09:03:32;;;;;;;;;;;22.90;99.90;;;;;;5050709;28;19920;-83
2021/03/09 09:05:59;;;;;;;;;;;22.90;99.90;;;;;;5049855;28;19909;-83
2021/03/09 09:08:25;;;;;;;;;;;22.90;99.90;;;;;;5051984;28;19979;-83
2021/03/09 09:10:53;;;;;;;;;;;22.90;99.90;;;;;;5065715;28;20044;-84
2021/03/09 09:13:33;;;;;;;;;;;22.90;99.90;;;;;;5070481;28;19937;-83
2021/03/09 09:16:01;;;;;;;;;;;22.90;99.90;;;;;;5061273;28;19908;-84
2021/03/09 09:18:29;;;;;;;;;;;22.90;99.90;;;;;;5072632;28;20381;-82
2021/03/09 09:20:56;;;;;;;;;;;22.90;99.90;;;;;;5072071;28;20007;-82
2021/03/09 09:23:30;;;;;;;;;;;22.90;99.90;;;;;;5072675;28;19909;-82
2021/03/09 09:25:58;;;;;;;;;;;22.90;99.90;;;;;;5072433;28;20472;-81
2021/03/09 09:28:26;;;;;;;;;;;23.00;99.90;;;;;;5105222;28;19916;-81
2021/03/09 09:30:53;;;;;;;;;;;22.90;99.90;;;;;;5071848;28;19915;-82
2021/03/09 09:33:21;;;;;;;;;;;22.90;99.90;;;;;;5072644;28;19923;-83
2021/03/09 09:35:49;;;;;;;;;;;22.90;99.90;;;;;;5071917;28;19909;-80
2021/03/09 09:38:19;;;;;;;;;;;22.90;99.90;;;;;;5071289;28;20007;-82
2021/03/09 09:40:54;;;;;;;;;;;22.80;99.90;;;;;;5105001;28;19912;-82
2021/03/09 09:43:22;;;;;;;;;;;22.80;99.90;;;;;;5072503;28;19909;-79
2021/03/09 09:45:55;;;;;;;;;;;22.80;99.90;;;;;;5072642;28;19920;-84
2021/03/09 09:48:23;;;;;;;;;;;22.80;99.90;;;;;;5072647;28;20015;-79
2021/03/09 09:51:00;;;;;;;;;;;22.90;99.90;;;;;;5072703;28;19909;-83
2021/03/09 09:53:32;;;;;;;;;;;22.90;99.90;;;;;;5071184;28;20308;-82
2021/03/09 09:56:10;;;;;;;;;;;22.90;99.90;;;;;;5072810;28;19940;-81
2021/03/09 09:58:45;;;;;;;;;;;22.90;99.90;;;;;;5072509;28;19909;-82
2021/03/09 10:01:13;;;;;;;;;;;22.90;99.90;;;;;;5072258;28;19915;-81
2021/03/09 10:04:02;;;;;;;;;;;22.90;99.90;;;;;;5072445;28;19908;-81
2021/03/09 10:06:38;;;;;;;;;;;23.00;99.90;;;;;;5072104;28;19912;-81
2021/03/09 10:09:24;;;;;;;;;;;23.00;99.90;;;;;;5072112;28;19943;-81
2021/03/09 10:12:01;;;;;;;;;;;22.90;99.90;;;;;;5072064;28;19914;-82
2021/03/09 10:14:33;;;;;;;;;;;22.80;99.90;;;;;;5073134;28;19909;-83
2021/03/09 10:17:00;;;;;;;;;;;22.70;99.90;;;;;;5075821;28;20401;-82
2021/03/09 10:19:39;;;;;;;;;;;22.70;99.90;;;;;;5077083;28;19916;-82
2021/03/09 10:22:19;;;;;;;;;;;22.70;99.90;;;;;;5109149;28;20286;-83
2021/03/09 10:24:46;;;;;;;;;;;22.70;99.90;;;;;;5076437;28;19965;-82
2021/03/09 10:27:17;;;;;;;;;;;22.70;99.90;;;;;;5076811;28;19909;-83
2021/03/09 10:29:45;;;;;;;;;;;22.70;99.90;;;;;;5075643;28;20011;-82
2021/03/09 10:32:16;;;;;;;;;;;22.70;99.90;;;;;;5074613;28;19913;-82
2021/03/09 10:34:54;;;;;;;;;;;22.70;99.90;;;;;;5075577;28;19908;-82
2021/03/09 10:37:37;;;;;;;;;;;22.70;99.90;;;;;;5092645;28;19970;-83
2021/03/09 10:40:09;;;;;;;;;;;22.70;99.90;;;;;;5075658;28;20424;-82
2021/03/09 10:42:40;;;;;;;;;;;22.70;99.90;;;;;;5076151;28;19908;-83
2021/03/09 10:45:27;;;;;;;;;;;22.70;99.90;;;;;;5075889;28;19908;-83
2021/03/09 10:48:01;;;;;;;;;;;22.70;99.90;;;;;;5072877;28;19913;-81
2021/03/09 10:50:46;;;;;;;;;;;22.60;99.90;;;;;;5075775;28;20287;-82
2021/03/09 10:53:13;;;;;;;;;;;22.60;99.90;;;;;;5117019;28;19909;-83
2021/03/09 10:55:40;;;;;;;;;;;22.60;99.90;;;;;;5095139;28;19975;-84
2021/03/09 10:58:08;;;;;;;;;;;22.60;99.90;;;;;;5069340;28;20003;-82
2021/03/09 11:00:34;;;;;;;;;;;22.50;99.90;;;;;;5073861;28;19923;-83
2021/03/09 11:03:01;;;;;;;;;;;22.40;99.90;;;;;;5106998;28;20247;-82
2021/03/09 11:05:28;;;;;;;;;;;22.20;99.90;;;;;;5073096;28;19916;-83
2021/03/09 11:07:54;;;;;;;;;;;22.10;99.90;;;;;;5105300;28;19935;-81
2021/03/09 11:10:21;;;;;;;;;;;22.00;99.90;;;;;;5073775;28;20023;-82
2021/03/09 11:12:49;;;;;;;;;;;21.90;99.90;;;;;;5074238;28;19908;-84
2021/03/09 11:15:17;;;;;;;;;;;21.90;99.90;;;;;;5064179;28;19959;-81
2021/03/09 11:17:48;;;;;;;;;;;21.90;99.90;;;;;;5053232;28;19913;-83
2021/03/09 11:20:15;;;;;;;;;;;21.90;99.90;;;;;;5084467;28;19913;-82
2021/03/09 11:22:42;;;;;;;;;;;21.90;99.90;;;;;;5066164;28;19961;-83
2021/03/09 11:25:09;;;;;;;;;;;21.90;99.90;;;;;;5073952;28;19945;-83
2021/03/09 11:27:36;;;;;;;;;;;21.90;99.90;;;;;;5073738;28;20436;-84
2021/03/09 11:30:03;;;;;;;;;;;22.00;99.90;;;;;;5089002;28;20374;-81
2021/03/09 11:32:30;;;;;;;;;;;22.00;99.90;;;;;;5074121;28;19972;-82
2021/03/09 11:34:57;;;;;;;;;;;22.00;99.90;;;;;;5073997;28;19908;-83
2021/03/09 11:37:26;;;;;;;;;;;22.00;99.90;;;;;;5072077;28;19955;-82
2021/03/09 11:39:53;;;;;;;;;;;22.00;99.90;;;;;;5074882;28;19915;-84
2021/03/09 11:42:20;;;;;;;;;;;22.10;99.90;;;;;;5073321;28;19913;-84
2021/03/09 11:44:48;;;;;;;;;;;22.10;99.90;;;;;;5070982;28;19948;-83
2021/03/09 11:47:14;;;;;;;;;;;22.20;99.90;;;;;;5073463;28;19935;-84
2021/03/09 11:49:41;;;;;;;;;;;22.10;99.90;;;;;;5073769;28;20282;-85
2021/03/09 11:52:16;;;;;;;;;;;22.20;99.90;;;;;;5073403;28;19931;-83
2021/03/09 11:54:43;;;;;;;;;;;22.20;99.90;;;;;;5072635;28;19999;-83
2021/03/09 11:57:10;;;;;;;;;;;22.20;99.90;;;;;;5072706;28;19966;-84
2021/03/09 11:59:37;;;;;;;;;;;22.20;99.90;;;;;;5073532;28;19909;-84
2021/03/09 12:02:06;;;;;;;;;;;22.20;99.90;;;;;;5085973;28;19966;-84
2021/03/09 12:04:33;;;;;;;;;;;22.30;99.90;;;;;;5072131;28;19962;-83
2021/03/09 12:06:59;;;;;;;;;;;22.30;99.90;;;;;;5088868;28;19912;-84
2021/03/09 12:09:26;;;;;;;;;;;22.30;99.90;;;;;;5071995;28;19927;-84
2021/03/09 12:11:53;;;;;;;;;;;22.40;99.90;;;;;;5073365;28;19958;-84
2021/03/09 12:14:19;;;;;;;;;;;22.30;99.90;;;;;;5073640;28;19909;-82
2021/03/09 12:16:46;;;;;;;;;;;22.40;99.90;;;;;;5073986;28;19909;-84
2021/03/09 12:19:15;;;;;;;;;;;22.40;99.90;;;;;;5073521;28;19914;-84
2021/03/09 12:21:42;;;;;;;;;;;22.40;99.90;;;;;;5073566;28;19936;-84
2021/03/09 12:24:12;;;;;;;;;;;22.50;99.90;;;;;;5072366;28;20003;-84
2021/03/09 12:26:39;;;;;;;;;;;22.40;99.90;;;;;;5073762;28;19958;-83
2021/03/09 12:29:06;;;;;;;;;;;22.50;99.90;;;;;;5088791;28;20015;-83
2021/03/09 12:31:32;;;;;;;;;;;22.40;99.90;;;;;;5073896;28;20008;-84
2021/03/09 12:34:00;;;;;;;;;;;22.40;99.90;;;;;;5088685;28;19913;-83
2021/03/09 12:36:26;;;;;;;;;;;22.40;99.90;;;;;;5090992;28;19908;-85
2021/03/09 12:38:53;;;;;;;;;;;22.40;99.90;;;;;;5108939;28;19908;-84
2021/03/09 12:41:20;;;;;;;;;;;22.40;99.90;;;;;;5110154;28;19943;-84
2021/03/09 12:43:47;;;;;;;;;;;22.40;99.90;;;;;;5075285;28;19908;-82
2021/03/09 12:46:13;;;;;;;;;;;22.50;99.90;;;;;;5073381;28;20344;-84
2021/03/09 12:48:40;;;;;;;;;;;22.40;99.90;;;;;;5073274;28;19984;-84
2021/03/09 12:51:07;;;;;;;;;;;22.40;99.90;;;;;;5073334;28;19908;-84
2021/03/09 12:53:33;;;;;;;;;;;22.40;99.90;;;;;;5072915;28;19919;-85
2021/03/09 12:56:00;;;;;;;;;;;22.50;99.90;;;;;;5073070;28;19909;-84
2021/03/09 12:58:27;;;;;;;;;;;22.50;99.90;;;;;;5072119;28;19909;-84
2021/03/09 13:00:53;;;;;;;;;;;22.50;99.90;;;;;;5073297;28;19908;-84
2021/03/09 13:03:20;;;;;;;;;;;22.50;99.90;;;;;;5073271;28;19908;-84
2021/03/09 13:05:47;;;;;;;;;;;22.40;99.90;;;;;;5072757;28;19909;-84
2021/03/09 13:08:13;;;;;;;;;;;22.40;99.90;;;;;;5073015;28;19924;-84
2021/03/09 13:10:40;;;;;;;;;;;22.40;99.90;;;;;;5072774;28;20359;-84
2021/03/09 13:13:07;;;;;;;;;;;22.30;99.90;;;;;;5073195;28;19916;-84
2021/03/09 13:15:33;;;;;;;;;;;22.30;99.90;;;;;;5073099;28;20038;-84
2021/03/09 13:18:00;;;;;;;;;;;22.40;99.90;;;;;;5072907;28;19908;-84
2021/03/09 13:20:28;;;;;;;;;;;22.30;99.90;;;;;;5072565;28;20522;-84
2021/03/09 13:22:58;;;;;;;;;;;22.40;99.90;;;;;;5074210;28;19944;-85
2021/03/09 13:25:28;;;;;;;;;;;22.40;99.90;;;;;;5075912;28;19914;-83
2021/03/09 13:27:56;;;;;;;;;;;22.40;99.90;;;;;;5073095;28;20004;-86
2021/03/09 13:30:23;;;;;;;;;;;22.40;99.90;;;;;;5088667;28;20371;-86
2021/03/09 13:32:50;;;;;;;;;;;22.40;99.90;;;;;;5088546;28;19999;-85
2021/03/09 13:35:17;;;;;;;;;;;22.50;99.90;;;;;;5088310;28;19992;-85
2021/03/09 13:37:44;;;;;;;;;;;22.40;99.90;;;;;;5072828;28;20003;-85
2021/03/09 13:40:12;;;;;;;;;;;22.50;99.90;;;;;;5073102;28;19908;-85
2021/03/09 13:42:39;;;;;;;;;;;22.50;99.90;;;;;;5072939;28;19909;-85
2021/03/09 13:45:07;;;;;;;;;;;22.50;99.90;;;;;;5072901;28;19977;-84
2021/03/09 13:47:34;;;;;;;;;;;22.50;99.90;;;;;;5073095;28;19952;-82
2021/03/09 13:50:00;;;;;;;;;;;22.50;99.90;;;;;;5072595;28;19916;-83
2021/03/09 13:52:27;;;;;;;;;;;22.50;99.90;;;;;;5076434;28;19935;-83
2021/03/09 13:54:54;;;;;;;;;;;22.50;99.90;;;;;;5076604;28;19908;-83
2021/03/09 13:57:21;;;;;;;;;;;22.50;99.90;;;;;;5076334;28;19952;-83
2021/03/09 13:59:48;;;;;;;;;;;22.50;99.90;;;;;;5076438;28;19908;-83
2021/03/09 14:02:15;;;;;;;;;;;22.40;99.90;;;;;;5076433;28;19909;-83
2021/03/09 14:04:41;;;;;;;;;;;22.40;99.90;;;;;;5076308;28;19915;-83
2021/03/09 14:07:10;;;;;;;;;;;22.50;99.90;;;;;;5076506;28;20313;-83
2021/03/09 14:09:37;;;;;;;;;;;22.50;99.90;;;;;;5091492;28;19971;-83
2021/03/09 14:12:04;;;;;;;;;;;22.50;99.90;;;;;;5076190;28;19959;-83
2021/03/09 14:14:30;;;;;;;;;;;22.50;99.90;;;;;;5076119;28;19909;-83
2021/03/09 14:16:57;;;;;;;;;;;22.50;99.90;;;;;;5076308;28;19909;-83
2021/03/09 14:19:24;;;;;;;;;;;22.40;99.90;;;;;;5075884;28;19916;-83
2021/03/09 14:21:51;;;;;;;;;;;22.40;99.90;;;;;;5076494;28;19916;-83
2021/03/09 14:24:17;;;;;;;;;;;22.30;99.90;;;;;;5077802;28;19915;-84
2021/03/09 14:26:44;;;;;;;;;;;22.30;99.90;;;;;;5099102;28;20308;-82
2021/03/09 14:29:11;;;;;;;;;;;22.30;99.90;;;;;;5094129;28;19928;-82
2021/03/09 14:31:38;;;;;;;;;;;22.20;99.90;;;;;;5091738;28;19916;-83
2021/03/09 14:34:04;;;;;;;;;;;22.30;99.90;;;;;;5072876;28;19966;-83